Lady Nur — 3FFE2 — position and weather

sailwx.info

Track history (hours):
 
Tides and Currents Weather Stations Pressure Air Temp Water Temp Dewpoint Dewpoint Depression Visibility Wind Speed Wind Dir Waves Ship Positions

Lady Nur

Last reported at 2015-Jul-01 16:23 UTC. Time now 2015-Jul-07 06:48 UTC.
Position N 31°25' E 028°43'.

Length 82 m; draft 5.4 m.

Type: Cargo ship. MMSI: 373237000.

Date/timePositionNaut miles runAvg speedWind from/ knotsBaromVisibWave heightAir tempDewpointWater temp
2015-Jul-01 16:23N 31°25' E 028°43'  
2015-Jun-27 15:24N 36°06' E 014°57'7 8.1
2015-Jun-27 14:32N 36°09' E 014°49'8 8.2
2015-Jun-27 13:33N 36°12' E 014°40'8 8.2
2015-Jun-27 12:33N 36°16' E 014°30'8 8.3
2015-Jun-27 11:33N 36°19' E 014°21'8 8.5
2015-Jun-27 10:33N 36°23' E 014°12'9 8.5
2015-Jun-27 09:33N 36°27' E 014°02'8 8.5
2015-Jun-27 08:33N 36°30' E 013°53'8 8.3
2015-Jun-27 07:33N 36°34' E 013°43'8 8.0
2015-Jun-27 06:33N 36°37' E 013°34'8 7.5
2015-Jun-27 05:33N 36°41' E 013°26'8 7.6
2015-Jun-27 04:33N 36°44' E 013°18'8 7.5
2015-Jun-27 03:33N 36°46' E 013°09'96 7.8
2015-Jun-26 15:15N 37°20' E 011°16'332 7.8
2015-Jun-24 20:31N 38°11' E 004°21'140 7.4
2015-Jun-24 01:33N 38°31' E 001°24'6 6.0
2015-Jun-24 00:32N 38°34' E 001°17'7 6.7
2015-Jun-23 23:33N 38°37' E 001°10'7 7.4
2015-Jun-23 22:33N 38°41' E 001°02'9 7.7
2015-Jun-23 21:25N 38°44' E 000°51'7 8.2
2015-Jun-23 20:33N 38°46' E 000°42'10 8.4
2015-Jun-23 19:19N 38°49' E 000°30'2 7.9
2015-Jun-23 19:05N 38°50' E 000°28'  
Track history (hours):
 
Tides and Currents Weather Stations Pressure Air Temp Water Temp Dewpoint Dewpoint Depression Visibility Wind Speed Wind Dir Waves Ship Positions

Lady Nur

Last reported at 2015-Jul-01 16:23 UTC. Time now 2015-Jul-07 06:48 UTC.
Position N 31°25' E 028°43'.

Length 82 m; draft 5.4 m.

Type: Cargo ship. MMSI: 373237000.

Date/timePositionNaut miles runAvg speedWind from/ knotsBaromVisibWave heightAir tempDewpointWater temp
2015-Jul-01 16:23N 31°25' E 028°43'  
2015-Jun-27 15:24N 36°06' E 014°57'7 8.1
2015-Jun-27 14:32N 36°09' E 014°49'8 8.2
2015-Jun-27 13:33N 36°12' E 014°40'8 8.2
2015-Jun-27 12:33N 36°16' E 014°30'8 8.3
2015-Jun-27 11:33N 36°19' E 014°21'8 8.5
2015-Jun-27 10:33N 36°23' E 014°12'9 8.5
2015-Jun-27 09:33N 36°27' E 014°02'8 8.5
2015-Jun-27 08:33N 36°30' E 013°53'8 8.3
2015-Jun-27 07:33N 36°34' E 013°43'8 8.0
2015-Jun-27 06:33N 36°37' E 013°34'8 7.5
2015-Jun-27 05:33N 36°41' E 013°26'8 7.6
2015-Jun-27 04:33N 36°44' E 013°18'8 7.5
2015-Jun-27 03:33N 36°46' E 013°09'96 7.8
2015-Jun-26 15:15N 37°20' E 011°16'332 7.8
2015-Jun-24 20:31N 38°11' E 004°21'140 7.4
2015-Jun-24 01:33N 38°31' E 001°24'6 6.0
2015-Jun-24 00:32N 38°34' E 001°17'7 6.7
2015-Jun-23 23:33N 38°37' E 001°10'7 7.4
2015-Jun-23 22:33N 38°41' E 001°02'9 7.7
2015-Jun-23 21:25N 38°44' E 000°51'7 8.2
2015-Jun-23 20:33N 38°46' E 000°42'10 8.4
2015-Jun-23 19:19N 38°49' E 000°30'2 7.9
2015-Jun-23 19:05N 38°50' E 000°28'  

Dump ship's entire track history